createdAt,value
2023-02-23T00:00:48.764Z,0.00
2023-02-23T00:01:38.766Z,0.00
2023-02-23T00:02:28.806Z,0.00
2023-02-23T00:03:19.172Z,0.00
2023-02-23T00:04:08.714Z,0.00
2023-02-23T00:04:58.765Z,0.00
2023-02-23T00:05:48.710Z,0.00
2023-02-23T00:06:38.733Z,0.00
2023-02-23T00:07:28.692Z,0.00
2023-02-23T00:08:18.653Z,0.00
2023-02-23T00:09:08.654Z,0.00
2023-02-23T00:09:58.644Z,0.00
2023-02-23T00:10:48.643Z,0.00
2023-02-23T00:11:38.650Z,0.00
2023-02-23T00:12:28.614Z,0.00
2023-02-23T00:13:18.598Z,0.00
2023-02-23T00:14:08.597Z,0.00
2023-02-23T00:14:58.584Z,0.00
2023-02-23T00:15:48.596Z,0.00
2023-02-23T00:16:38.647Z,0.00
2023-02-23T00:17:28.573Z,0.00
2023-02-23T00:18:18.548Z,0.00
2023-02-23T00:19:08.614Z,0.00
2023-02-23T00:19:58.544Z,0.00
2023-02-23T00:20:48.557Z,0.00
2023-02-23T00:21:38.533Z,0.00
2023-02-23T00:22:28.502Z,0.00
2023-02-23T00:23:18.491Z,0.00
2023-02-23T00:24:08.522Z,0.00
2023-02-23T00:24:58.492Z,0.00
2023-02-23T00:25:48.492Z,0.00
2023-02-23T00:26:38.468Z,0.00
2023-02-23T00:27:28.452Z,0.00
2023-02-23T00:28:18.452Z,0.00
2023-02-23T00:29:08.437Z,0.00
2023-02-23T00:29:58.425Z,0.00
2023-02-23T00:30:48.482Z,0.00
2023-02-23T00:31:38.479Z,0.00
2023-02-23T00:32:28.535Z,0.00
2023-02-23T00:33:18.376Z,0.00
2023-02-23T00:34:08.392Z,0.00
2023-02-23T00:34:58.412Z,0.00
2023-02-23T00:35:48.361Z,0.00
2023-02-23T00:36:38.355Z,0.00
2023-02-23T00:37:28.353Z,0.00
2023-02-23T00:38:18.346Z,0.00
2023-02-23T00:39:08.324Z,0.00
2023-02-23T00:39:58.328Z,0.00
2023-02-23T00:40:48.325Z,0.00
2023-02-23T00:41:38.281Z,0.00
2023-02-23T00:42:28.285Z,0.00
2023-02-23T00:43:18.276Z,0.00
2023-02-23T00:44:08.261Z,0.00
2023-02-23T00:44:58.275Z,0.00
2023-02-23T00:45:48.278Z,0.00
2023-02-23T00:46:38.234Z,0.00
2023-02-23T00:47:28.248Z,0.00
2023-02-23T00:48:18.235Z,0.00
2023-02-23T00:49:08.219Z,0.00
2023-02-23T00:49:58.215Z,0.00
2023-02-23T00:50:48.216Z,0.00
2023-02-23T00:51:38.185Z,0.00
2023-02-23T00:52:28.195Z,0.00
2023-02-23T00:53:18.174Z,0.00
2023-02-23T00:54:08.175Z,0.00
2023-02-23T00:54:58.137Z,0.00
2023-02-23T00:55:48.144Z,0.00
2023-02-23T00:56:38.148Z,0.00
2023-02-23T00:57:28.135Z,0.00
2023-02-23T00:58:18.110Z,0.00
2023-02-23T00:59:08.124Z,0.00
2023-02-23T00:59:58.104Z,0.00
2023-02-23T01:00:48.096Z,0.00
2023-02-23T01:01:38.120Z,0.00
2023-02-23T01:02:28.119Z,0.00
2023-02-23T01:03:18.084Z,0.00
2023-02-23T01:04:08.063Z,0.00
2023-02-23T01:04:58.037Z,0.00
2023-02-23T01:05:48.032Z,0.00
2023-02-23T01:06:38.027Z,0.00
2023-02-23T01:07:28.026Z,0.00
2023-02-23T01:08:17.993Z,0.00
2023-02-23T01:09:07.984Z,0.00
2023-02-23T01:09:57.998Z,0.00
2023-02-23T01:10:47.997Z,0.00
2023-02-23T01:11:37.960Z,0.00
2023-02-23T01:12:27.974Z,0.00
2023-02-23T01:13:17.954Z,0.00
2023-02-23T01:14:07.937Z,0.00
2023-02-23T01:14:57.927Z,0.00
2023-02-23T01:15:48.002Z,0.00
2023-02-23T01:16:37.905Z,0.00
2023-02-23T01:17:27.903Z,0.00
2023-02-23T01:18:17.893Z,0.00
2023-02-23T01:19:07.894Z,0.00
2023-02-23T01:19:57.885Z,0.00
2023-02-23T01:20:47.854Z,0.00
2023-02-23T01:21:37.875Z,0.00
2023-02-23T01:22:27.842Z,0.00
2023-02-23T01:23:19.285Z,0.00
2023-02-23T01:24:07.839Z,0.00
2023-02-23T01:24:57.825Z,0.00
2023-02-23T01:25:47.803Z,0.00
2023-02-23T01:26:37.798Z,0.00
2023-02-23T01:27:27.798Z,0.00
2023-02-23T01:28:17.774Z,0.00
2023-02-23T01:29:07.767Z,0.00
2023-02-23T01:29:57.737Z,0.00
2023-02-23T01:30:47.822Z,0.00
2023-02-23T01:31:37.896Z,0.00
2023-02-23T01:32:27.762Z,0.00
2023-02-23T01:33:17.729Z,0.00
2023-02-23T01:34:07.710Z,0.00
2023-02-23T01:34:57.689Z,0.00
2023-02-23T01:35:47.702Z,0.00
2023-02-23T01:36:37.670Z,0.00
2023-02-23T01:37:27.672Z,0.00
2023-02-23T01:38:17.660Z,0.00
2023-02-23T01:39:07.755Z,0.00
2023-02-23T01:39:57.650Z,0.00
2023-02-23T01:40:47.646Z,0.00
2023-02-23T01:41:37.606Z,0.00
2023-02-23T01:42:27.618Z,0.00
2023-02-23T01:43:17.612Z,0.00
2023-02-23T01:44:07.609Z,0.00
2023-02-23T01:44:57.607Z,0.00
2023-02-23T01:45:47.634Z,0.00
2023-02-23T01:46:37.579Z,0.00
2023-02-23T01:47:27.564Z,0.00
2023-02-23T01:48:17.548Z,0.00
2023-02-23T01:49:07.546Z,0.00
2023-02-23T01:49:57.539Z,0.00
2023-02-23T01:50:47.540Z,0.00
2023-02-23T01:51:37.533Z,0.00
2023-02-23T01:52:27.540Z,0.00
2023-02-23T01:53:17.510Z,0.00
2023-02-23T01:54:07.497Z,0.00
2023-02-23T01:54:57.513Z,0.00
2023-02-23T01:55:47.488Z,0.00
2023-02-23T01:56:37.465Z,0.00
2023-02-23T01:57:27.454Z,0.00
2023-02-23T01:58:17.446Z,0.00
2023-02-23T01:59:07.447Z,0.00
2023-02-23T01:59:57.443Z,0.00
2023-02-23T02:00:47.584Z,0.00
2023-02-23T02:01:37.436Z,0.00
2023-02-23T02:02:27.416Z,0.00
2023-02-23T02:03:17.403Z,0.00
2023-02-23T02:04:07.384Z,0.00
2023-02-23T02:04:57.416Z,0.00
2023-02-23T02:05:47.377Z,0.00
2023-02-23T02:06:37.356Z,0.00
2023-02-23T02:07:27.356Z,0.00
2023-02-23T02:08:17.330Z,0.00
2023-02-23T02:09:07.313Z,0.00
2023-02-23T02:09:57.324Z,0.00
2023-02-23T02:10:47.303Z,0.00
2023-02-23T02:11:37.285Z,0.00
2023-02-23T02:12:27.308Z,0.00
2023-02-23T02:13:17.294Z,0.00
2023-02-23T02:14:07.285Z,0.00
2023-02-23T02:14:57.245Z,0.00
2023-02-23T02:15:47.257Z,0.00
2023-02-23T02:16:37.246Z,0.00
2023-02-23T02:17:27.248Z,0.00
2023-02-23T02:18:17.236Z,0.00
2023-02-23T02:19:07.215Z,0.00
2023-02-23T02:19:57.204Z,0.00
2023-02-23T02:20:47.200Z,0.00
2023-02-23T02:21:37.187Z,0.00
2023-02-23T02:22:27.166Z,0.00
2023-02-23T02:23:17.154Z,0.00
2023-02-23T02:24:07.157Z,0.00
2023-02-23T02:24:57.184Z,0.00
2023-02-23T02:25:47.122Z,0.00
2023-02-23T02:26:37.150Z,0.00
2023-02-23T02:27:27.110Z,0.00
2023-02-23T02:28:17.105Z,0.00
2023-02-23T02:29:07.102Z,0.00
2023-02-23T02:29:57.101Z,0.00
2023-02-23T02:30:47.104Z,0.00
2023-02-23T02:31:37.205Z,0.00
2023-02-23T02:32:27.230Z,0.00
2023-02-23T02:33:17.052Z,0.00
2023-02-23T02:34:07.056Z,0.00
2023-02-23T02:34:57.052Z,0.00
2023-02-23T02:35:47.035Z,0.00
2023-02-23T02:36:37.012Z,0.00
2023-02-23T02:37:27.007Z,0.00
2023-02-23T02:38:17.003Z,0.00
2023-02-23T02:39:06.989Z,0.00
2023-02-23T02:39:56.990Z,0.00
2023-02-23T02:40:46.952Z,0.00
2023-02-23T02:41:37.007Z,0.00
2023-02-23T02:42:26.971Z,0.00
2023-02-23T02:43:16.940Z,0.00
2023-02-23T02:44:06.933Z,0.00
2023-02-23T02:44:56.922Z,0.00
2023-02-23T02:45:46.926Z,0.00
2023-02-23T02:46:36.923Z,0.00
2023-02-23T02:47:26.908Z,0.00
2023-02-23T02:48:16.889Z,0.00
2023-02-23T02:49:06.870Z,0.00
2023-02-23T02:49:56.882Z,0.00
2023-02-23T02:50:46.866Z,0.00
2023-02-23T02:51:36.864Z,0.00
2023-02-23T02:52:26.866Z,0.00
2023-02-23T02:53:16.842Z,0.00
2023-02-23T02:54:07.264Z,0.00
2023-02-23T02:54:56.813Z,0.00
2023-02-23T02:55:46.804Z,0.00
2023-02-23T02:56:36.824Z,0.00
2023-02-23T02:57:26.798Z,0.00
2023-02-23T02:58:16.781Z,0.00
2023-02-23T02:59:06.764Z,0.00
2023-02-23T02:59:56.754Z,0.00
2023-02-23T03:00:46.755Z,0.00
2023-02-23T03:01:36.957Z,0.00
2023-02-23T03:02:26.726Z,0.00
2023-02-23T03:03:16.735Z,0.00
2023-02-23T03:04:06.724Z,0.00
2023-02-23T03:04:56.733Z,0.00
2023-02-23T03:05:46.698Z,0.00
2023-02-23T03:06:36.702Z,0.00
2023-02-23T03:07:26.695Z,0.00
2023-02-23T03:08:16.674Z,0.00
2023-02-23T03:09:06.652Z,0.00
2023-02-23T03:09:56.660Z,0.00
2023-02-23T03:10:46.652Z,0.00
2023-02-23T03:11:36.651Z,0.00
2023-02-23T03:12:26.632Z,0.00
2023-02-23T03:13:16.611Z,0.00
2023-02-23T03:14:06.592Z,0.00
2023-02-23T03:14:56.615Z,0.00
2023-02-23T03:15:46.607Z,0.00
2023-02-23T03:16:36.580Z,0.00
2023-02-23T03:17:26.574Z,0.00
2023-02-23T03:18:16.550Z,0.00
2023-02-23T03:19:06.541Z,0.00
2023-02-23T03:19:56.561Z,0.00
2023-02-23T03:20:46.552Z,0.00
2023-02-23T03:21:36.572Z,0.00
2023-02-23T03:22:26.522Z,0.00
2023-02-23T03:23:16.526Z,0.00
2023-02-23T03:24:06.481Z,0.00
2023-02-23T03:24:56.501Z,0.00
2023-02-23T03:25:46.481Z,0.00
2023-02-23T03:26:36.483Z,0.00
2023-02-23T03:27:26.451Z,0.00
2023-02-23T03:28:16.463Z,0.00
2023-02-23T03:29:06.451Z,0.00
2023-02-23T03:29:56.427Z,0.00
2023-02-23T03:30:46.488Z,0.00
2023-02-23T03:31:36.492Z,0.00
2023-02-23T03:32:26.584Z,0.00
2023-02-23T03:33:16.399Z,0.00
2023-02-23T03:34:06.382Z,0.00
2023-02-23T03:34:56.389Z,0.00
2023-02-23T03:35:46.347Z,0.00
2023-02-23T03:36:36.358Z,0.00
2023-02-23T03:37:26.336Z,0.00
2023-02-23T03:38:16.348Z,0.00
2023-02-23T03:39:06.320Z,0.00
2023-02-23T03:39:56.328Z,0.00
2023-02-23T03:40:46.317Z,0.00
2023-02-23T03:41:36.299Z,0.00
2023-02-23T03:42:26.307Z,0.00
2023-02-23T03:43:16.299Z,0.00
2023-02-23T03:44:06.280Z,0.00
2023-02-23T03:44:56.279Z,0.00
2023-02-23T03:45:46.281Z,0.00
2023-02-23T03:46:36.257Z,0.00
2023-02-23T03:47:26.296Z,0.00
2023-02-23T03:48:16.228Z,0.00
2023-02-23T03:49:06.240Z,0.00
2023-02-23T03:49:56.218Z,0.00
2023-02-23T03:50:46.189Z,0.00
2023-02-23T03:51:36.198Z,0.00
2023-02-23T03:52:26.189Z,0.00
2023-02-23T03:53:16.175Z,0.00
2023-02-23T03:54:06.147Z,0.00
2023-02-23T03:54:56.132Z,0.00
2023-02-23T03:55:46.143Z,0.00
2023-02-23T03:56:36.149Z,0.00
2023-02-23T03:57:26.133Z,0.00
2023-02-23T03:58:16.125Z,0.00
2023-02-23T03:59:06.113Z,0.00
2023-02-23T03:59:56.119Z,0.00
2023-02-23T04:00:46.093Z,0.00
2023-02-23T04:01:36.097Z,0.00
2023-02-23T04:02:26.086Z,0.00
2023-02-23T04:03:16.085Z,0.00
2023-02-23T04:04:06.061Z,0.00
2023-02-23T04:04:56.056Z,0.00
2023-02-23T04:05:46.030Z,0.00
2023-02-23T04:06:36.031Z,0.00
2023-02-23T04:07:26.036Z,0.00
2023-02-23T04:08:15.988Z,0.00
2023-02-23T04:09:05.994Z,0.00
2023-02-23T04:09:56.002Z,0.00
2023-02-23T04:10:45.980Z,0.00
2023-02-23T04:11:35.980Z,0.00
2023-02-23T04:12:25.974Z,0.00
2023-02-23T04:13:15.978Z,0.00
2023-02-23T04:14:05.929Z,0.00
2023-02-23T04:14:55.945Z,0.00
2023-02-23T04:15:45.917Z,0.00
2023-02-23T04:16:36.019Z,0.00
2023-02-23T04:17:25.900Z,0.00
2023-02-23T04:18:15.888Z,0.00
2023-02-23T04:19:05.873Z,0.00
2023-02-23T04:19:55.889Z,0.00
2023-02-23T04:20:45.880Z,0.00
2023-02-23T04:21:35.868Z,0.00
2023-02-23T04:22:25.848Z,0.00
2023-02-23T04:23:15.846Z,0.00
2023-02-23T04:24:05.839Z,0.00
2023-02-23T04:24:55.816Z,0.00
2023-02-23T04:25:45.819Z,0.00
2023-02-23T04:26:35.807Z,0.00
2023-02-23T04:27:25.791Z,0.00
2023-02-23T04:28:15.806Z,0.00
2023-02-23T04:29:05.756Z,0.00
2023-02-23T04:29:55.780Z,0.00
2023-02-23T04:30:45.796Z,0.00
2023-02-23T04:31:35.843Z,0.00
2023-02-23T04:32:25.820Z,0.00
2023-02-23T04:33:15.739Z,0.00
2023-02-23T04:34:05.714Z,0.00
2023-02-23T04:34:55.709Z,0.00
2023-02-23T04:35:45.699Z,0.00
2023-02-23T04:36:35.689Z,0.00
2023-02-23T04:37:25.678Z,0.00
2023-02-23T04:38:15.685Z,0.00
2023-02-23T04:39:05.658Z,0.00
2023-02-23T04:39:55.635Z,0.00
2023-02-23T04:40:45.659Z,0.00
2023-02-23T04:41:35.640Z,0.00
2023-02-23T04:42:25.618Z,0.00
2023-02-23T04:43:15.618Z,0.00
2023-02-23T04:44:05.627Z,0.00
2023-02-23T04:44:55.596Z,0.00
2023-02-23T04:45:45.675Z,0.00
2023-02-23T04:46:35.588Z,0.00
2023-02-23T04:47:25.606Z,0.00
2023-02-23T04:48:15.569Z,0.00
2023-02-23T04:49:05.547Z,0.00
2023-02-23T04:49:55.548Z,0.00
2023-02-23T04:50:45.542Z,0.00
2023-02-23T04:51:35.518Z,0.00
2023-02-23T04:52:25.532Z,0.00
2023-02-23T04:53:15.514Z,0.00
2023-02-23T04:54:05.500Z,0.00
2023-02-23T04:54:55.489Z,0.00
2023-02-23T04:55:47.318Z,0.00
2023-02-23T04:56:35.477Z,0.00
2023-02-23T04:57:25.457Z,0.00
2023-02-23T04:58:15.457Z,0.00
2023-02-23T04:59:05.454Z,0.00
2023-02-23T04:59:55.442Z,0.00
2023-02-23T05:00:45.432Z,0.00
2023-02-23T05:01:35.496Z,0.00
2023-02-23T05:02:25.427Z,0.00
2023-02-23T05:03:15.394Z,0.00
2023-02-23T05:04:05.382Z,0.00
2023-02-23T05:04:55.438Z,0.00
2023-02-23T05:05:45.385Z,0.00
2023-02-23T05:06:35.355Z,0.00
2023-02-23T05:07:25.345Z,0.00
2023-02-23T05:08:15.358Z,0.00
2023-02-23T05:09:05.321Z,0.00
2023-02-23T05:09:55.336Z,0.00
2023-02-23T05:10:45.324Z,0.00
2023-02-23T05:11:35.304Z,0.00
2023-02-23T05:12:25.292Z,0.00
2023-02-23T05:13:15.297Z,0.00
2023-02-23T05:14:05.286Z,0.00
2023-02-23T05:14:55.262Z,0.00
2023-02-23T05:15:45.289Z,0.00
2023-02-23T05:16:35.266Z,0.00
2023-02-23T05:17:25.248Z,0.00
2023-02-23T05:18:15.263Z,0.00
2023-02-23T05:19:05.227Z,0.00
2023-02-23T05:19:55.220Z,0.00
2023-02-23T05:20:45.203Z,0.00
2023-02-23T05:21:35.192Z,0.00
2023-02-23T05:22:25.187Z,0.00
2023-02-23T05:23:15.168Z,0.00
2023-02-23T05:24:05.174Z,0.00
2023-02-23T05:24:57.360Z,0.00
2023-02-23T05:25:45.121Z,0.00
2023-02-23T05:26:35.135Z,0.00
2023-02-23T05:27:25.126Z,0.00
2023-02-23T05:28:15.144Z,0.00
2023-02-23T05:29:05.112Z,0.00
2023-02-23T05:29:55.097Z,0.00
2023-02-23T05:30:45.166Z,0.00
2023-02-23T05:31:35.141Z,0.00
2023-02-23T05:32:25.143Z,0.00
2023-02-23T05:33:17.329Z,0.00
2023-02-23T05:34:05.053Z,0.00
2023-02-23T05:34:55.043Z,0.00
2023-02-23T05:35:45.009Z,0.00
2023-02-23T05:36:35.018Z,0.00
2023-02-23T05:37:25.020Z,0.00
2023-02-23T05:38:15.031Z,0.00
2023-02-23T05:39:05.002Z,0.00
2023-02-23T05:39:54.990Z,0.00
2023-02-23T05:40:44.981Z,0.00
2023-02-23T05:41:34.961Z,0.00
2023-02-23T05:42:24.957Z,0.00
2023-02-23T05:43:14.957Z,0.00
2023-02-23T05:44:04.943Z,0.00
2023-02-23T05:44:54.924Z,0.00
2023-02-23T05:45:44.910Z,0.00
2023-02-23T05:46:34.989Z,0.00
2023-02-23T05:47:24.938Z,0.00
2023-02-23T05:48:14.883Z,0.00
2023-02-23T05:49:04.903Z,0.00
2023-02-23T05:49:54.862Z,0.00
2023-02-23T05:50:44.855Z,0.00
2023-02-23T05:51:34.863Z,0.00
2023-02-23T05:52:24.871Z,0.00
2023-02-23T05:53:14.839Z,0.00
2023-02-23T05:54:04.825Z,0.00
2023-02-23T05:54:54.841Z,0.00
2023-02-23T05:55:44.806Z,0.00
2023-02-23T05:56:34.807Z,0.00
2023-02-23T05:57:24.805Z,0.00
2023-02-23T05:58:14.787Z,0.00
2023-02-23T05:59:04.797Z,0.00
2023-02-23T05:59:54.770Z,0.00
2023-02-23T06:00:44.764Z,0.00
2023-02-23T06:01:34.736Z,0.00
2023-02-23T06:02:24.777Z,0.00
2023-02-23T06:03:14.717Z,0.00
2023-02-23T06:04:06.212Z,0.00
2023-02-23T06:04:54.696Z,0.00
2023-02-23T06:05:44.703Z,0.00
2023-02-23T06:06:34.713Z,0.00
2023-02-23T06:07:24.679Z,0.00
2023-02-23T06:08:14.642Z,0.00
2023-02-23T06:09:04.676Z,0.00
2023-02-23T06:09:54.646Z,0.00
2023-02-23T06:10:44.646Z,0.00
2023-02-23T06:11:34.636Z,0.00
2023-02-23T06:12:24.635Z,0.00
2023-02-23T06:13:14.611Z,0.00
2023-02-23T06:14:04.614Z,0.00
2023-02-23T06:14:54.604Z,0.00
2023-02-23T06:15:44.615Z,0.00
2023-02-23T06:16:34.649Z,0.00
2023-02-23T06:17:24.581Z,0.00
2023-02-23T06:18:14.564Z,0.00
2023-02-23T06:19:04.550Z,0.00
2023-02-23T06:19:54.548Z,0.00
2023-02-23T06:20:44.547Z,0.00
2023-02-23T06:21:34.501Z,0.00
2023-02-23T06:22:24.512Z,0.00
2023-02-23T06:23:14.513Z,0.00
2023-02-23T06:24:04.503Z,0.00
2023-02-23T06:24:54.482Z,0.00
2023-02-23T06:25:44.495Z,0.00
2023-02-23T06:26:34.473Z,0.00
2023-02-23T06:27:24.469Z,0.00
2023-02-23T06:28:14.442Z,0.00
2023-02-23T06:29:04.451Z,0.00
2023-02-23T06:29:54.432Z,5.62
2023-02-23T06:30:44.471Z,5.62
2023-02-23T06:31:34.485Z,5.62
2023-02-23T06:32:24.471Z,5.62
2023-02-23T06:33:14.395Z,5.62
2023-02-23T06:34:04.381Z,5.62
2023-02-23T06:34:54.387Z,5.62
2023-02-23T06:35:44.365Z,5.62
2023-02-23T06:36:34.353Z,5.62
2023-02-23T06:37:24.362Z,11.25
2023-02-23T06:38:14.331Z,11.25
2023-02-23T06:39:04.330Z,11.25
2023-02-23T06:39:54.310Z,11.25
2023-02-23T06:40:44.312Z,11.25
2023-02-23T06:41:34.301Z,11.25
2023-02-23T06:42:24.298Z,11.25
2023-02-23T06:43:14.300Z,11.25
2023-02-23T06:44:04.264Z,11.25
2023-02-23T06:44:54.259Z,11.25
2023-02-23T06:45:44.261Z,11.25
2023-02-23T06:46:34.280Z,11.25
2023-02-23T06:47:24.246Z,11.25
2023-02-23T06:48:14.227Z,11.25
2023-02-23T06:49:04.219Z,16.88
2023-02-23T06:49:54.197Z,16.88
2023-02-23T06:50:44.239Z,22.50
2023-02-23T06:51:34.196Z,22.50
2023-02-23T06:52:24.179Z,22.50
2023-02-23T06:53:14.164Z,22.50
2023-02-23T06:54:04.174Z,22.50
2023-02-23T06:54:54.150Z,28.12
2023-02-23T06:55:44.149Z,28.12
2023-02-23T06:56:34.132Z,33.75
2023-02-23T06:57:24.129Z,33.75
2023-02-23T06:58:14.106Z,33.75
2023-02-23T06:59:04.123Z,33.75
2023-02-23T06:59:54.099Z,33.75
2023-02-23T07:00:44.084Z,39.38
2023-02-23T07:01:34.094Z,39.38
2023-02-23T07:02:24.047Z,39.38
2023-02-23T07:03:14.046Z,39.38
2023-02-23T07:04:04.423Z,45.00
2023-02-23T07:04:54.038Z,45.00
2023-02-23T07:05:44.049Z,39.38
2023-02-23T07:06:34.086Z,39.38
2023-02-23T07:07:24.163Z,33.75
2023-02-23T07:08:14.000Z,33.75
2023-02-23T07:09:04.008Z,33.75
2023-02-23T07:09:53.982Z,33.75
2023-02-23T07:10:43.984Z,39.38
2023-02-23T07:11:33.957Z,45.00
2023-02-23T07:12:24.029Z,50.62
2023-02-23T07:13:13.952Z,56.25
2023-02-23T07:14:03.929Z,61.88
2023-02-23T07:14:53.912Z,67.50
2023-02-23T07:15:43.911Z,67.50
2023-02-23T07:16:33.936Z,73.12
2023-02-23T07:17:23.901Z,73.12
2023-02-23T07:18:13.890Z,73.12
2023-02-23T07:19:03.891Z,78.75
2023-02-23T07:19:53.884Z,78.75
2023-02-23T07:20:43.870Z,78.75
2023-02-23T07:21:33.860Z,78.75
2023-02-23T07:22:23.853Z,78.75
2023-02-23T07:23:13.819Z,84.38
2023-02-23T07:24:03.811Z,84.38
2023-02-23T07:24:53.819Z,90.00
2023-02-23T07:25:43.819Z,90.00
2023-02-23T07:26:33.801Z,95.62
2023-02-23T07:27:23.771Z,95.62
2023-02-23T07:28:13.767Z,95.62
2023-02-23T07:29:03.771Z,95.62
2023-02-23T07:29:53.768Z,95.62
2023-02-23T07:30:43.759Z,95.62
2023-02-23T07:31:33.856Z,101.25
2023-02-23T07:32:23.853Z,101.25
2023-02-23T07:33:13.730Z,106.88
2023-02-23T07:34:03.722Z,106.88
2023-02-23T07:34:54.026Z,106.88
2023-02-23T07:35:43.711Z,106.88
2023-02-23T07:36:33.688Z,106.88
2023-02-23T07:37:23.691Z,106.88
2023-02-23T07:38:13.677Z,106.88
2023-02-23T07:39:03.649Z,106.88
2023-02-23T07:39:53.658Z,101.25
2023-02-23T07:40:43.632Z,101.25
2023-02-23T07:41:33.621Z,101.25
2023-02-23T07:42:23.620Z,101.25
2023-02-23T07:43:13.611Z,101.25
2023-02-23T07:44:03.611Z,101.25
2023-02-23T07:44:53.602Z,106.88
2023-02-23T07:45:46.166Z,106.88
2023-02-23T07:46:33.588Z,106.88
2023-02-23T07:47:23.575Z,112.50
2023-02-23T07:48:13.569Z,112.50
2023-02-23T07:49:03.551Z,118.12
2023-02-23T07:49:53.528Z,123.75
2023-02-23T07:50:43.543Z,129.38
2023-02-23T07:51:33.512Z,129.38
2023-02-23T07:52:23.535Z,129.38
2023-02-23T07:53:13.510Z,129.38
2023-02-23T07:54:03.500Z,135.00
2023-02-23T07:54:53.511Z,135.00
2023-02-23T07:55:43.479Z,135.00
2023-02-23T07:56:33.471Z,135.00
2023-02-23T07:57:25.008Z,135.00
2023-02-23T07:58:13.445Z,129.38
2023-02-23T07:59:03.432Z,129.38
2023-02-23T07:59:53.432Z,129.38
2023-02-23T08:00:43.429Z,123.75
2023-02-23T08:01:33.452Z,123.75
2023-02-23T08:02:23.422Z,123.75
2023-02-23T08:03:13.369Z,129.38
2023-02-23T08:04:03.503Z,129.38
2023-02-23T08:04:53.391Z,135.00
2023-02-23T08:05:43.398Z,135.00
2023-02-23T08:06:33.350Z,135.00
2023-02-23T08:07:23.350Z,135.00
2023-02-23T08:08:13.352Z,140.62
2023-02-23T08:09:03.380Z,135.00
2023-02-23T08:09:53.321Z,135.00
2023-02-23T08:10:43.320Z,135.00
2023-02-23T08:11:33.309Z,135.00
2023-02-23T08:12:23.310Z,135.00
2023-02-23T08:13:13.273Z,135.00
2023-02-23T08:14:03.288Z,135.00
2023-02-23T08:14:53.258Z,135.00
2023-02-23T08:15:43.282Z,135.00
2023-02-23T08:16:33.316Z,135.00
2023-02-23T08:17:23.260Z,135.00
2023-02-23T08:18:13.277Z,135.00
2023-02-23T08:19:03.222Z,135.00
2023-02-23T08:19:53.220Z,129.38
2023-02-23T08:20:43.211Z,123.75
2023-02-23T08:21:33.209Z,118.12
2023-02-23T08:22:23.185Z,112.50
2023-02-23T08:23:13.185Z,112.50
2023-02-23T08:24:03.155Z,112.50
2023-02-23T08:24:53.151Z,118.12
2023-02-23T08:25:43.156Z,129.38
2023-02-23T08:26:33.147Z,135.00
2023-02-23T08:27:23.149Z,140.62
2023-02-23T08:28:13.107Z,140.62
2023-02-23T08:29:03.108Z,140.62
2023-02-23T08:29:53.091Z,135.00
2023-02-23T08:30:43.153Z,135.00
2023-02-23T08:31:33.183Z,129.38
2023-02-23T08:32:23.119Z,123.75
2023-02-23T08:33:13.055Z,123.75
2023-02-23T08:34:03.054Z,123.75
2023-02-23T08:34:53.022Z,123.75
2023-02-23T08:35:43.035Z,129.38
2023-02-23T08:36:33.028Z,129.38
2023-02-23T08:37:23.016Z,135.00
2023-02-23T08:38:13.007Z,135.00
2023-02-23T08:39:03.019Z,135.00
2023-02-23T08:39:52.975Z,135.00
2023-02-23T08:40:42.988Z,129.38
2023-02-23T08:41:32.972Z,129.38
2023-02-23T08:42:22.969Z,129.38
2023-02-23T08:43:13.029Z,135.00
2023-02-23T08:44:02.937Z,135.00
2023-02-23T08:44:52.935Z,140.62
2023-02-23T08:45:42.931Z,140.62
2023-02-23T08:46:33.007Z,146.25
2023-02-23T08:47:22.949Z,151.88
2023-02-23T08:48:12.885Z,157.50
2023-02-23T08:49:02.889Z,163.12
2023-02-23T08:49:52.879Z,168.75
2023-02-23T08:50:42.864Z,174.38
2023-02-23T08:51:32.860Z,174.38
2023-02-23T08:52:22.850Z,180.00
2023-02-23T08:53:12.830Z,174.38
2023-02-23T08:54:02.829Z,174.38
2023-02-23T08:54:52.810Z,174.38
2023-02-23T08:55:42.799Z,174.38
2023-02-23T08:56:32.805Z,168.75
2023-02-23T08:57:22.801Z,168.75
2023-02-23T08:58:12.786Z,168.75
2023-02-23T08:59:02.769Z,163.12
2023-02-23T08:59:52.760Z,163.12
2023-02-23T09:00:42.775Z,157.50
2023-02-23T09:01:32.900Z,151.88
2023-02-23T09:02:22.744Z,140.62
2023-02-23T09:03:12.715Z,135.00
2023-02-23T09:04:02.711Z,135.00
2023-02-23T09:04:52.707Z,135.00
2023-02-23T09:05:42.783Z,135.00
2023-02-23T09:06:32.681Z,135.00
2023-02-23T09:07:22.703Z,140.62
2023-02-23T09:08:12.657Z,140.62
2023-02-23T09:09:02.892Z,146.25
2023-02-23T09:09:52.633Z,151.88
2023-02-23T09:10:42.655Z,157.50
2023-02-23T09:11:32.645Z,157.50
2023-02-23T09:12:22.640Z,151.88
2023-02-23T09:13:12.597Z,146.25
2023-02-23T09:14:02.614Z,146.25
2023-02-23T09:14:52.587Z,146.25
2023-02-23T09:15:42.591Z,151.88
2023-02-23T09:16:32.593Z,157.50
2023-02-23T09:17:22.575Z,168.75
2023-02-23T09:18:12.566Z,174.38
2023-02-23T09:19:02.535Z,174.38
2023-02-23T09:19:52.555Z,174.38
2023-02-23T09:20:42.544Z,168.75
2023-02-23T09:21:32.505Z,174.38
2023-02-23T09:22:22.537Z,180.00
2023-02-23T09:23:12.485Z,185.62
2023-02-23T09:24:02.499Z,196.88
2023-02-23T09:24:52.477Z,202.50
2023-02-23T09:25:42.486Z,208.12
2023-02-23T09:26:32.493Z,208.12
2023-02-23T09:27:22.464Z,219.38
2023-02-23T09:28:12.456Z,230.62
2023-02-23T09:29:02.452Z,241.88
2023-02-23T09:29:52.458Z,253.12
2023-02-23T09:30:42.450Z,253.12
2023-02-23T09:31:32.456Z,253.12
2023-02-23T09:32:22.532Z,253.12
2023-02-23T09:33:12.368Z,258.75
2023-02-23T09:34:02.374Z,258.75
2023-02-23T09:34:52.397Z,264.38
2023-02-23T09:35:42.361Z,270.00
2023-02-23T09:36:32.360Z,270.00
2023-02-23T09:37:22.359Z,275.62
2023-02-23T09:38:12.344Z,275.62
2023-02-23T09:39:02.345Z,275.62
2023-02-23T09:39:52.338Z,275.62
2023-02-23T09:40:42.329Z,275.62
2023-02-23T09:41:32.312Z,275.62
2023-02-23T09:42:22.287Z,281.25
2023-02-23T09:43:12.275Z,281.25
2023-02-23T09:44:02.277Z,286.88
2023-02-23T09:44:52.276Z,286.88
2023-02-23T09:45:42.387Z,292.50
2023-02-23T09:46:32.247Z,298.12
2023-02-23T09:47:22.224Z,303.75
2023-02-23T09:48:12.222Z,309.38
2023-02-23T09:49:02.205Z,315.00
2023-02-23T09:49:52.229Z,315.00
2023-02-23T09:50:42.196Z,320.62
2023-02-23T09:51:32.187Z,320.62
2023-02-23T09:52:22.280Z,320.62
2023-02-23T09:53:12.169Z,320.62
2023-02-23T09:54:02.167Z,320.62
2023-02-23T09:54:52.141Z,315.00
2023-02-23T09:55:42.136Z,315.00
2023-02-23T09:56:32.154Z,315.00
2023-02-23T09:57:22.111Z,315.00
2023-02-23T09:58:12.192Z,315.00
2023-02-23T09:59:02.361Z,315.00
2023-02-23T09:59:52.099Z,315.00
2023-02-23T10:00:42.086Z,309.38
2023-02-23T10:01:32.152Z,309.38
2023-02-23T10:02:22.056Z,309.38
2023-02-23T10:03:12.051Z,303.75
2023-02-23T10:04:02.066Z,303.75
2023-02-23T10:04:52.098Z,303.75
2023-02-23T10:05:42.035Z,303.75
2023-02-23T10:06:32.030Z,309.38
2023-02-23T10:07:22.023Z,309.38
2023-02-23T10:08:12.029Z,309.38
2023-02-23T10:09:02.017Z,315.00
2023-02-23T10:09:51.992Z,320.62
2023-02-23T10:10:41.967Z,320.62
2023-02-23T10:11:31.985Z,326.25
2023-02-23T10:12:21.953Z,326.25
2023-02-23T10:13:11.962Z,326.25
2023-02-23T10:14:01.954Z,326.25
2023-02-23T10:14:51.923Z,320.62
2023-02-23T10:15:41.965Z,315.00
2023-02-23T10:16:31.920Z,315.00
2023-02-23T10:17:21.915Z,309.38
2023-02-23T10:18:11.894Z,309.38
2023-02-23T10:19:01.981Z,303.75
2023-02-23T10:19:51.907Z,303.75
2023-02-23T10:20:41.870Z,298.12
2023-02-23T10:21:31.858Z,292.50
2023-02-23T10:22:21.852Z,286.88
2023-02-23T10:23:11.851Z,281.25
2023-02-23T10:24:01.883Z,270.00
2023-02-23T10:24:51.830Z,264.38
2023-02-23T10:25:41.808Z,264.38
2023-02-23T10:26:31.797Z,264.38
2023-02-23T10:27:21.803Z,264.38
2023-02-23T10:28:11.802Z,270.00
2023-02-23T10:29:01.778Z,270.00
2023-02-23T10:29:51.773Z,270.00
2023-02-23T10:30:41.796Z,270.00
2023-02-23T10:31:31.880Z,264.38
2023-02-23T10:32:21.893Z,270.00
2023-02-23T10:33:11.741Z,275.62
2023-02-23T10:34:01.735Z,286.88
2023-02-23T10:34:51.698Z,298.12
2023-02-23T10:35:41.692Z,309.38
2023-02-23T10:36:31.697Z,320.62
2023-02-23T10:37:21.695Z,331.88
2023-02-23T10:38:11.688Z,343.12
2023-02-23T10:39:01.659Z,348.75
2023-02-23T10:39:52.352Z,354.38
2023-02-23T10:40:41.632Z,360.00
2023-02-23T10:41:31.630Z,354.38
2023-02-23T10:42:21.630Z,348.75
2023-02-23T10:43:11.609Z,343.12
2023-02-23T10:44:15.428Z,337.50
2023-02-23T10:44:52.590Z,331.88
2023-02-23T10:45:41.579Z,326.25
2023-02-23T10:46:31.613Z,320.62
2023-02-23T10:47:21.569Z,315.00
2023-02-23T10:48:12.253Z,309.38
2023-02-23T10:49:01.553Z,309.38
2023-02-23T10:49:51.552Z,309.38
2023-02-23T10:50:41.525Z,303.75